Time;durP1;ratioP1;P1;durP2;ratioP2;P2;SDS_P1;SDS_P2;PMS_P1;PMS_P2;Temp;Humidity;BMP_temperature;BMP_pressure;BME280_temperature;BME280_humidity;BME280_pressure;Samples;Min_cycle;Max_cycle;Signal;HPM_P1;HPM_P2
2023/01/22 00:02:24;;;;;;;;;;;-1.60;99.90;;;;;;5044842;28;19936;-76
2023/01/22 00:04:50;;;;;;;;;;;-1.60;99.90;;;;;;5062410;28;20268;-76
2023/01/22 00:07:15;;;;;;;;;;;-1.60;99.90;;;;;;5062751;28;19995;-76
2023/01/22 00:09:41;;;;;;;;;;;-1.60;99.90;;;;;;5063177;28;19908;-77
2023/01/22 00:12:07;;;;;;;;;;;-1.60;99.90;;;;;;5062974;28;19913;-77
2023/01/22 00:14:32;;;;;;;;;;;-1.50;99.90;;;;;;5062785;28;19913;-76
2023/01/22 00:16:58;;;;;;;;;;;-1.60;99.90;;;;;;5044922;28;19904;-76
2023/01/22 00:19:23;;;;;;;;;;;-1.60;99.90;;;;;;5063158;28;20387;-76
2023/01/22 00:21:49;;;;;;;;;;;-1.60;99.90;;;;;;5063047;28;19981;-76
2023/01/22 00:24:14;;;;;;;;;;;-1.60;99.90;;;;;;5062361;28;19905;-76
2023/01/22 00:26:40;;;;;;;;;;;-1.50;99.90;;;;;;5044906;28;19912;-76
2023/01/22 00:29:05;;;;;;;;;;;-1.50;99.90;;;;;;5044327;28;19905;-76
2023/01/22 00:31:31;;;;;;;;;;;-1.60;99.90;;;;;;5061234;28;19905;-76
2023/01/22 00:33:56;;;;;;;;;;;-1.60;99.90;;;;;;5062120;28;19976;-76
2023/01/22 00:36:22;;;;;;;;;;;-1.70;99.90;;;;;;5061594;28;19904;-76
2023/01/22 00:38:48;;;;;;;;;;;-1.70;99.90;;;;;;5062692;28;20501;-76
2023/01/22 00:41:13;;;;;;;;;;;-1.70;99.90;;;;;;5062802;28;19908;-76
2023/01/22 00:43:39;;;;;;;;;;;-1.60;99.90;;;;;;5044902;28;19943;-76
2023/01/22 00:46:08;;;;;;;;;;;-1.60;99.90;;;;;;5063107;28;20421;-76
2023/01/22 00:48:34;;;;;;;;;;;-1.60;99.90;;;;;;5046014;28;19904;-76
2023/01/22 00:51:00;;;;;;;;;;;-1.60;99.90;;;;;;5064026;28;19905;-76
2023/01/22 00:53:25;;;;;;;;;;;-1.60;99.90;;;;;;5045921;28;20348;-76
2023/01/22 00:56:00;;;;;;;;;;;-1.50;99.90;;;;;;5045942;28;19905;-76
2023/01/22 00:58:27;;;;;;;;;;;-1.50;99.90;;;;;;5045523;28;20071;-76
2023/01/22 01:00:55;;;;;;;;;;;-1.40;99.90;;;;;;5045477;28;19962;-76
2023/01/22 01:03:28;;;;;;;;;;;-1.60;99.90;;;;;;5045463;28;19908;-76
2023/01/22 01:05:54;;;;;;;;;;;-1.40;99.90;;;;;;5046439;28;19909;-76
2023/01/22 01:08:19;;;;;;;;;;;-1.30;99.90;;;;;;5063294;28;19905;-76
2023/01/22 01:10:45;;;;;;;;;;;-1.30;99.90;;;;;;5045854;28;19905;-76
2023/01/22 01:13:11;;;;;;;;;;;-1.30;99.90;;;;;;5046970;28;19913;-76
2023/01/22 01:15:36;;;;;;;;;;;-1.30;99.90;;;;;;5046240;28;19909;-76
2023/01/22 01:18:02;;;;;;;;;;;-1.30;99.90;;;;;;5064019;28;19905;-77
2023/01/22 01:20:27;;;;;;;;;;;-1.30;99.90;;;;;;5046455;28;19999;-77
2023/01/22 01:22:53;;;;;;;;;;;-1.30;99.90;;;;;;5045579;28;19951;-76
2023/01/22 01:25:18;;;;;;;;;;;-1.30;99.90;;;;;;5046262;28;19912;-76
2023/01/22 01:27:44;;;;;;;;;;;-1.30;99.90;;;;;;5064757;28;19919;-76
2023/01/22 01:30:09;;;;;;;;;;;-1.30;99.90;;;;;;5064790;28;20416;-77
2023/01/22 01:32:35;;;;;;;;;;;-1.30;99.90;;;;;;5067159;28;19905;-77
2023/01/22 01:35:00;;;;;;;;;;;-1.30;99.90;;;;;;5067192;28;19905;-76
2023/01/22 01:37:26;;;;;;;;;;;-1.30;99.90;;;;;;5068432;28;19951;-77
2023/01/22 01:39:51;;;;;;;;;;;-1.40;99.90;;;;;;5068258;28;20386;-76
2023/01/22 01:42:22;;;;;;;;;;;-1.40;99.90;;;;;;5050402;28;19979;-76
2023/01/22 01:45:07;;;;;;;;;;;-1.40;99.90;;;;;;5050987;28;19909;-76
2023/01/22 01:47:34;;;;;;;;;;;-1.50;99.90;;;;;;5068222;28;19911;-76
2023/01/22 01:50:00;;;;;;;;;;;-1.50;99.90;;;;;;5068609;28;19995;-77
2023/01/22 01:52:25;;;;;;;;;;;-1.50;99.90;;;;;;5068154;28;19905;-76
2023/01/22 01:54:52;;;;;;;;;;;-0.30;99.90;;;;;;5067734;28;19919;-76
2023/01/22 01:57:19;;;;;;;;;;;-1.50;99.90;;;;;;5050853;28;19909;-76
2023/01/22 01:59:45;;;;;;;;;;;-1.50;99.90;;;;;;5067959;28;19904;-76
2023/01/22 02:02:11;;;;;;;;;;;-1.50;99.90;;;;;;5050630;28;19940;-76
2023/01/22 02:04:36;;;;;;;;;;;-1.60;99.90;;;;;;5050346;28;19909;-76
2023/01/22 02:07:05;;;;;;;;;;;-1.60;99.90;;;;;;5045150;28;19947;-76
2023/01/22 02:09:31;;;;;;;;;;;-1.60;99.90;;;;;;5048734;28;19955;-77
2023/01/22 02:11:56;;;;;;;;;;;-1.60;99.90;;;;;;5067688;28;19905;-76
2023/01/22 02:14:26;;;;;;;;;;;-1.60;99.90;;;;;;5050915;28;19919;-76
2023/01/22 02:16:58;;;;;;;;;;;-1.60;99.90;;;;;;5067298;28;19905;-76
2023/01/22 02:19:24;;;;;;;;;;;-1.70;99.90;;;;;;5048059;28;19905;-76
2023/01/22 02:21:49;;;;;;;;;;;-1.70;99.90;;;;;;5056505;28;20330;-76
2023/01/22 02:24:15;;;;;;;;;;;-1.70;99.90;;;;;;5056352;28;20003;-76
2023/01/22 02:26:42;;;;;;;;;;;-1.70;99.90;;;;;;5038734;28;19954;-76
2023/01/22 02:29:09;;;;;;;;;;;-1.70;99.90;;;;;;5056351;28;19908;-76
2023/01/22 02:31:36;;;;;;;;;;;-1.70;99.90;;;;;;5038318;28;19909;-76
2023/01/22 02:34:01;;;;;;;;;;;-1.80;99.90;;;;;;5055812;28;20275;-77
2023/01/22 02:36:28;;;;;;;;;;;-1.80;99.90;;;;;;5056460;28;19909;-77
2023/01/22 02:38:53;;;;;;;;;;;-1.80;99.90;;;;;;5056299;28;19905;-76
2023/01/22 02:41:19;;;;;;;;;;;-1.80;99.90;;;;;;5055567;28;19909;-77
2023/01/22 02:43:44;;;;;;;;;;;-1.90;99.90;;;;;;5038237;28;19911;-76
2023/01/22 02:46:10;;;;;;;;;;;-2.00;99.90;;;;;;5056024;28;19911;-76
2023/01/22 02:48:36;;;;;;;;;;;-2.00;99.90;;;;;;5038222;28;19905;-76
2023/01/22 02:51:01;;;;;;;;;;;-2.00;99.90;;;;;;5055957;28;19905;-76
2023/01/22 02:53:27;;;;;;;;;;;-2.00;99.90;;;;;;5056398;28;19908;-76
2023/01/22 02:55:52;;;;;;;;;;;-1.90;99.90;;;;;;5038053;28;19905;-76
2023/01/22 02:58:18;;;;;;;;;;;-1.90;99.90;;;;;;5055937;28;19905;-76
2023/01/22 03:00:43;;;;;;;;;;;-1.90;99.90;;;;;;5055553;28;20267;-76
2023/01/22 03:03:14;;;;;;;;;;;-1.80;99.90;;;;;;5055561;28;19904;-76
2023/01/22 03:05:57;;;;;;;;;;;-1.80;99.90;;;;;;5038435;28;20271;-76
2023/01/22 03:08:25;;;;;;;;;;;-1.80;99.90;;;;;;5055602;28;19962;-76
2023/01/22 03:10:56;;;;;;;;;;;-1.80;99.90;;;;;;5055572;28;19905;-76
2023/01/22 03:21:34;;;;;;;;;;;-1.60;99.90;;;;;;5055594;28;19916;-76
2023/01/22 03:23:59;;;;;;;;;;;-1.60;99.90;;;;;;5037611;28;19904;-76
2023/01/22 03:26:27;;;;;;;;;;;-1.60;99.90;;;;;;5055432;28;19911;-76
2023/01/22 03:28:53;;;;;;;;;;;-1.50;99.90;;;;;;5036872;28;19904;-76
2023/01/22 03:31:18;;;;;;;;;;;-1.60;99.90;;;;;;5037204;28;20010;-76
2023/01/22 03:33:47;;;;;;;;;;;-1.60;99.90;;;;;;5055267;28;19954;-76
2023/01/22 03:36:13;;;;;;;;;;;-1.50;99.90;;;;;;5056039;28;19905;-76
2023/01/22 03:38:39;;;;;;;;;;;-1.50;99.90;;;;;;5037393;28;20275;-76
2023/01/22 03:41:05;;;;;;;;;;;-1.50;99.90;;;;;;5055683;28;19909;-76
2023/01/22 03:43:31;;;;;;;;;;;-1.50;99.90;;;;;;5037482;28;19905;-76
2023/01/22 03:46:01;;;;;;;;;;;-1.50;99.90;;;;;;5037336;28;19905;-76
2023/01/22 03:48:30;;;;;;;;;;;-1.50;99.90;;;;;;5055384;28;19912;-77
2023/01/22 03:50:55;;;;;;;;;;;-1.50;99.90;;;;;;5055200;28;20356;-77
2023/01/22 03:53:21;;;;;;;;;;;-1.60;99.90;;;;;;5053953;28;19911;-76
2023/01/22 03:55:54;;;;;;;;;;;-1.60;99.90;;;;;;5055044;28;19956;-76
2023/01/22 03:58:20;;;;;;;;;;;-1.60;99.90;;;;;;5055250;28;19911;-76
2023/01/22 04:00:47;;;;;;;;;;;-1.60;99.90;;;;;;5054700;28;20015;-76
2023/01/22 04:03:12;;;;;;;;;;;-1.70;99.90;;;;;;5054612;28;19912;-76
2023/01/22 04:05:37;;;;;;;;;;;-1.70;99.90;;;;;;5055458;28;19905;-76
2023/01/22 04:08:03;;;;;;;;;;;-1.80;99.90;;;;;;5036843;28;19940;-76
2023/01/22 04:10:29;;;;;;;;;;;-1.80;99.90;;;;;;5054786;28;19967;-76
2023/01/22 04:12:54;;;;;;;;;;;-1.80;99.90;;;;;;5054500;28;19912;-76
2023/01/22 04:15:19;;;;;;;;;;;-1.80;99.90;;;;;;5036519;28;19908;-76
2023/01/22 04:17:45;;;;;;;;;;;-1.80;99.90;;;;;;5054928;28;19940;-75
2023/01/22 04:20:10;;;;;;;;;;;-1.80;99.90;;;;;;5036535;28;19905;-76
2023/01/22 04:22:36;;;;;;;;;;;-1.80;99.90;;;;;;5054582;28;20320;-76
2023/01/22 04:25:02;;;;;;;;;;;-1.80;99.90;;;;;;5038013;28;19928;-77
2023/01/22 04:27:27;;;;;;;;;;;-1.70;99.90;;;;;;5054318;28;19966;-77
2023/01/22 04:29:53;;;;;;;;;;;-1.60;99.90;;;;;;5036406;28;19912;-76
2023/01/22 04:32:18;;;;;;;;;;;-1.50;99.90;;;;;;5054468;28;19928;-76
2023/01/22 04:34:46;;;;;;;;;;;-1.40;99.90;;;;;;5054630;28;19905;-76
2023/01/22 04:37:11;;;;;;;;;;;-1.30;99.90;;;;;;5036464;28;20343;-76
2023/01/22 04:39:37;;;;;;;;;;;-1.30;99.90;;;;;;5036657;28;19963;-76
2023/01/22 04:42:02;;;;;;;;;;;-1.20;99.90;;;;;;5054228;28;19931;-76
2023/01/22 04:44:28;;;;;;;;;;;-1.10;99.90;;;;;;5036246;28;19905;-76
2023/01/22 04:46:53;;;;;;;;;;;-1.10;99.90;;;;;;5054272;28;20014;-76
2023/01/22 04:49:19;;;;;;;;;;;-1.10;99.90;;;;;;5036554;28;19905;-76
2023/01/22 04:51:44;;;;;;;;;;;-1.20;99.90;;;;;;5036599;28;20321;-76
2023/01/22 04:54:10;;;;;;;;;;;-1.10;99.90;;;;;;5054097;28;19904;-77
2023/01/22 04:56:36;;;;;;;;;;;-1.10;99.90;;;;;;5054812;28;19905;-77
2023/01/22 04:59:01;;;;;;;;;;;-1.20;99.90;;;;;;5036333;28;20370;-77
2023/01/22 05:01:27;;;;;;;;;;;-1.20;99.90;;;;;;5036522;28;19919;-76
2023/01/22 05:03:52;;;;;;;;;;;-1.30;99.90;;;;;;5054465;28;20394;-78
2023/01/22 05:06:18;;;;;;;;;;;-1.30;99.90;;;;;;5039354;28;19904;-77
2023/01/22 05:08:43;;;;;;;;;;;-1.30;99.90;;;;;;5040178;28;19947;-78
2023/01/22 05:11:09;;;;;;;;;;;-1.30;99.90;;;;;;5039846;28;19905;-78
2023/01/22 05:13:34;;;;;;;;;;;-1.30;99.90;;;;;;5039860;28;19912;-78
2023/01/22 05:15:59;;;;;;;;;;;-1.20;99.90;;;;;;5058815;28;20003;-78
2023/01/22 05:18:25;;;;;;;;;;;-1.20;99.90;;;;;;5057418;28;20257;-78
2023/01/22 05:20:50;;;;;;;;;;;-1.20;99.90;;;;;;5057729;28;19908;-76
2023/01/22 05:23:16;;;;;;;;;;;-1.20;99.90;;;;;;5058293;28;20395;-79
2023/01/22 05:25:45;;;;;;;;;;;-1.10;99.90;;;;;;5039831;28;19909;-76
2023/01/22 05:28:11;;;;;;;;;;;-1.10;99.90;;;;;;5039788;28;19905;-76
2023/01/22 05:30:36;;;;;;;;;;;-1.10;99.90;;;;;;5039775;28;20054;-78
2023/01/22 05:33:02;;;;;;;;;;;-1.00;99.90;;;;;;5057886;28;19911;-76
2023/01/22 05:35:27;;;;;;;;;;;-1.00;99.90;;;;;;5057833;28;19919;-76
2023/01/22 05:37:53;;;;;;;;;;;-0.90;99.90;;;;;;5039856;28;19905;-76
2023/01/22 05:40:18;;;;;;;;;;;-0.90;99.90;;;;;;5057150;28;19905;-76
2023/01/22 05:42:44;;;;;;;;;;;-0.80;99.90;;;;;;5057174;28;20345;-76
2023/01/22 05:45:09;;;;;;;;;;;-0.80;99.90;;;;;;5057291;28;20275;-76
2023/01/22 05:47:35;;;;;;;;;;;-0.70;99.90;;;;;;5039394;28;19904;-78
2023/01/22 05:50:01;;;;;;;;;;;-0.70;99.90;;;;;;5039390;28;19954;-76
2023/01/22 05:52:26;;;;;;;;;;;-0.70;99.90;;;;;;5056835;28;19912;-76
2023/01/22 05:54:51;;;;;;;;;;;0.00;99.90;;;;;;5057088;28;20000;-76
2023/01/22 05:57:17;;;;;;;;;;;-0.60;99.90;;;;;;5057272;28;19916;-75
2023/01/22 05:59:43;;;;;;;;;;;-0.50;99.90;;;;;;5039334;28;19905;-78
2023/01/22 06:02:08;;;;;;;;;;;-0.50;99.90;;;;;;5039429;28;19909;-76
2023/01/22 06:04:33;;;;;;;;;;;-0.40;99.90;;;;;;5057214;28;19911;-76
2023/01/22 06:06:59;;;;;;;;;;;0.40;99.90;;;;;;5039135;28;19909;-76
2023/01/22 06:09:24;;;;;;;;;;;-0.40;99.90;;;;;;5056746;28;19940;-76
2023/01/22 06:11:50;;;;;;;;;;;-0.40;99.90;;;;;;5056690;28;19908;-77
2023/01/22 06:14:15;;;;;;;;;;;-0.30;99.90;;;;;;5038654;28;19963;-76
2023/01/22 06:16:41;;;;;;;;;;;-0.30;99.90;;;;;;5055881;28;20326;-77
2023/01/22 06:19:07;;;;;;;;;;;-0.30;99.90;;;;;;5056924;28;20066;-76
2023/01/22 06:21:33;;;;;;;;;;;-0.30;99.90;;;;;;5056709;28;19909;-77
2023/01/22 06:23:58;;;;;;;;;;;-0.20;99.90;;;;;;5056753;28;19953;-77
2023/01/22 06:26:23;;;;;;;;;;;-0.20;99.90;;;;;;5056365;28;19905;-77
2023/01/22 06:28:49;;;;;;;;;;;-0.20;99.90;;;;;;5056582;28;19904;-77
2023/01/22 06:31:14;;;;;;;;;;;-0.10;99.90;;;;;;5038833;28;19905;-77
2023/01/22 06:33:40;;;;;;;;;;;-0.10;99.90;;;;;;5039161;28;20382;-77
2023/01/22 06:36:06;;;;;;;;;;;-0.10;99.90;;;;;;5056781;28;19999;-77
2023/01/22 06:38:31;;;;;;;;;;;-0.10;99.90;;;;;;5038793;28;19904;-77
2023/01/22 06:40:57;;;;;;;;;;;-0.10;99.90;;;;;;5038510;28;19908;-77
2023/01/22 06:43:23;;;;;;;;;;;-0.10;99.90;;;;;;5056629;28;19927;-77
2023/01/22 06:45:49;;;;;;;;;;;-0.10;99.90;;;;;;5038623;28;19905;-77
2023/01/22 06:48:15;;;;;;;;;;;-0.10;99.90;;;;;;5056203;28;19905;-77
2023/01/22 06:50:41;;;;;;;;;;;0.00;99.90;;;;;;5056272;28;20371;-77
2023/01/22 06:53:06;;;;;;;;;;;0.10;99.90;;;;;;5038280;28;19905;-76
2023/01/22 06:55:32;;;;;;;;;;;0.00;99.90;;;;;;5055922;28;20279;-76
2023/01/22 06:57:57;;;;;;;;;;;0.00;99.90;;;;;;5038229;28;19909;-77
2023/01/22 07:00:23;;;;;;;;;;;0.00;99.90;;;;;;5055922;28;20394;-77
2023/01/22 07:02:49;;;;;;;;;;;0.00;99.90;;;;;;5055500;28;19944;-77
2023/01/22 07:05:15;;;;;;;;;;;0.00;99.90;;;;;;5056089;28;19911;-76
2023/01/22 07:07:41;;;;;;;;;;;0.00;99.90;;;;;;5037948;28;19920;-76
2023/01/22 07:10:07;;;;;;;;;;;1.00;99.90;;;;;;5056211;28;19905;-76
2023/01/22 07:12:32;;;;;;;;;;;0.00;99.90;;;;;;5038063;28;19920;-76
2023/01/22 07:14:58;;;;;;;;;;;0.00;99.90;;;;;;5055996;28;20390;-76
2023/01/22 07:17:23;;;;;;;;;;;0.00;99.90;;;;;;5038222;28;19905;-76
2023/01/22 07:19:49;;;;;;;;;;;0.10;99.90;;;;;;5056252;28;19932;-76
2023/01/22 07:22:14;;;;;;;;;;;0.10;99.90;;;;;;5038062;28;19908;-76
2023/01/22 07:24:40;;;;;;;;;;;0.00;99.90;;;;;;5038708;28;19905;-76
2023/01/22 07:27:05;;;;;;;;;;;0.00;99.90;;;;;;5055948;28;19904;-77
2023/01/22 07:29:30;;;;;;;;;;;0.10;99.90;;;;;;5055481;28;19934;-77
2023/01/22 07:31:56;;;;;;;;;;;0.10;99.90;;;;;;5056448;28;19912;-76
2023/01/22 07:34:21;;;;;;;;;;;0.00;99.90;;;;;;5056414;28;19905;-76
2023/01/22 07:36:47;;;;;;;;;;;0.00;99.90;;;;;;5037452;28;20287;-76
2023/01/22 07:39:13;;;;;;;;;;;0.00;99.90;;;;;;5037771;28;19904;-76
2023/01/22 07:41:38;;;;;;;;;;;0.00;99.90;;;;;;5054931;28;20003;-76
2023/01/22 07:44:06;;;;;;;;;;;0.00;99.90;;;;;;5055605;28;19927;-76
2023/01/22 07:46:33;;;;;;;;;;;0.00;99.90;;;;;;5037876;28;19939;-76
2023/01/22 07:48:58;;;;;;;;;;;0.00;99.90;;;;;;5055654;28;19905;-76
2023/01/22 07:51:24;;;;;;;;;;;0.10;99.90;;;;;;5055483;28;20364;-76
2023/01/22 07:53:50;;;;;;;;;;;0.10;99.90;;;;;;5056023;28;19904;-76
2023/01/22 07:56:17;;;;;;;;;;;0.10;99.90;;;;;;5055835;28;19904;-76
2023/01/22 07:58:43;;;;;;;;;;;0.10;99.90;;;;;;5037275;28;19909;-76
2023/01/22 08:01:10;;;;;;;;;;;0.10;99.90;;;;;;5037245;28;20030;-77
2023/01/22 08:03:36;;;;;;;;;;;0.10;99.90;;;;;;5037917;28;19963;-76
2023/01/22 08:06:14;;;;;;;;;;;0.20;99.90;;;;;;5038411;28;19912;-77
2023/01/22 08:08:41;;;;;;;;;;;0.20;99.90;;;;;;5056708;28;19904;-77
2023/01/22 08:11:07;;;;;;;;;;;0.30;99.90;;;;;;5038464;28;19967;-76
2023/01/22 08:13:33;;;;;;;;;;;0.10;99.90;;;;;;5038492;28;19960;-76
2023/01/22 08:15:59;;;;;;;;;;;0.20;99.90;;;;;;5038069;28;19912;-78
2023/01/22 08:18:25;;;;;;;;;;;0.20;99.90;;;;;;5037799;28;19904;-77
2023/01/22 08:20:50;;;;;;;;;;;0.20;99.90;;;;;;5037866;28;19908;-78
2023/01/22 08:23:16;;;;;;;;;;;0.20;99.90;;;;;;5055697;28;19905;-77
2023/01/22 08:25:44;;;;;;;;;;;0.20;99.90;;;;;;5055445;28;19908;-77
2023/01/22 08:28:10;;;;;;;;;;;0.20;99.90;;;;;;5055023;28;19993;-77
2023/01/22 08:30:38;;;;;;;;;;;0.20;99.90;;;;;;5037139;28;20360;-78
2023/01/22 08:33:04;;;;;;;;;;;0.20;99.90;;;;;;5054966;28;19950;-77
2023/01/22 08:35:30;;;;;;;;;;;4.10;99.90;;;;;;5037368;28;20318;-77
2023/01/22 08:38:02;;;;;;;;;;;0.30;99.90;;;;;;5037138;28;19905;-77
2023/01/22 08:40:28;;;;;;;;;;;0.40;99.90;;;;;;5039439;28;19912;-77
2023/01/22 08:42:54;;;;;;;;;;;0.30;99.90;;;;;;5059630;28;20439;-78
2023/01/22 08:45:20;;;;;;;;;;;0.30;99.90;;;;;;5040953;28;19912;-78
2023/01/22 08:47:46;;;;;;;;;;;0.40;99.90;;;;;;5040937;28;20372;-78
2023/01/22 08:50:12;;;;;;;;;;;0.30;99.90;;;;;;5058613;28;19911;-79
2023/01/22 08:52:38;;;;;;;;;;;3.00;99.90;;;;;;5059144;28;19909;-77
2023/01/22 08:55:05;;;;;;;;;;;0.30;99.90;;;;;;5058586;28;19905;-77
2023/01/22 08:57:32;;;;;;;;;;;0.30;99.90;;;;;;5059346;28;19967;-77
2023/01/22 08:59:57;;;;;;;;;;;0.30;99.90;;;;;;5040841;28;20164;-77
2023/01/22 09:02:22;;;;;;;;;;;0.20;99.90;;;;;;5040850;28;20283;-77
2023/01/22 09:04:54;;;;;;;;;;;0.30;99.90;;;;;;5059644;28;19927;-77
2023/01/22 09:07:19;;;;;;;;;;;0.40;99.90;;;;;;5041876;28;20442;-77
2023/01/22 09:09:45;;;;;;;;;;;0.40;99.90;;;;;;5059627;28;19944;-76
2023/01/22 09:14:42;;;;;;;;;;;0.60;99.90;;;;;;5141637;22;19996;-77
2023/01/22 09:17:07;;;;;;;;;;;0.60;99.90;;;;;;5037657;28;19908;-76
2023/01/22 09:19:33;;;;;;;;;;;0.70;99.90;;;;;;5021290;28;19905;-76
2023/01/22 09:22:05;;;;;;;;;;;0.80;99.90;;;;;;5021026;28;19909;-76
2023/01/22 09:24:31;;;;;;;;;;;1.90;99.90;;;;;;5021446;28;19948;-76
2023/01/22 09:26:57;;;;;;;;;;;0.90;99.90;;;;;;5038952;28;19905;-77
2023/01/22 09:29:22;;;;;;;;;;;1.00;99.90;;;;;;5020473;28;20355;-77
2023/01/22 09:31:49;;;;;;;;;;;1.10;99.90;;;;;;5038065;28;19905;-77
2023/01/22 09:34:15;;;;;;;;;;;1.10;99.90;;;;;;5038710;28;19977;-77
2023/01/22 09:36:42;;;;;;;;;;;1.10;99.90;;;;;;5020911;28;19918;-77
2023/01/22 09:39:07;;;;;;;;;;;1.20;99.90;;;;;;5021275;28;20268;-77
2023/01/22 09:41:35;;;;;;;;;;;1.20;99.90;;;;;;5037619;28;19916;-77
2023/01/22 09:44:03;;;;;;;;;;;1.20;99.90;;;;;;5037830;28;19909;-77
2023/01/22 09:46:32;;;;;;;;;;;1.10;99.90;;;;;;5038215;28;19952;-77
2023/01/22 09:49:07;;;;;;;;;;;1.20;99.90;;;;;;5038025;28;19905;-77
2023/01/22 09:51:33;;;;;;;;;;;1.20;99.90;;;;;;5038128;28;19905;-77
2023/01/22 09:54:00;;;;;;;;;;;1.30;99.90;;;;;;5020098;28;19959;-77
2023/01/22 09:56:37;;;;;;;;;;;1.20;99.90;;;;;;5020072;28;19912;-76
2023/01/22 09:59:05;;;;;;;;;;;1.30;99.90;;;;;;5037774;28;19912;-76
2023/01/22 10:01:30;;;;;;;;;;;1.40;99.90;;;;;;5037791;28;19996;-76
2023/01/22 10:03:58;;;;;;;;;;;1.30;99.90;;;;;;5020213;28;19947;-76
2023/01/22 10:06:24;;;;;;;;;;;1.30;99.90;;;;;;5020713;28;19912;-76
2023/01/22 10:09:08;;;;;;;;;;;2.30;99.90;;;;;;5020352;28;19905;-76
2023/01/22 10:11:33;;;;;;;;;;;1.50;99.90;;;;;;5019830;28;19905;-76
2023/01/22 10:14:01;;;;;;;;;;;1.50;99.90;;;;;;5038035;28;19974;-77
2023/01/22 10:16:26;;;;;;;;;;;1.60;99.90;;;;;;5037487;28;19944;-77
2023/01/22 10:18:54;;;;;;;;;;;1.60;99.90;;;;;;5037838;28;19905;-77
2023/01/22 10:21:21;;;;;;;;;;;1.60;99.90;;;;;;5036833;28;20015;-77
2023/01/22 10:23:49;;;;;;;;;;;1.50;99.90;;;;;;5019731;28;19905;-77
2023/01/22 10:26:31;;;;;;;;;;;2.50;99.90;;;;;;5038274;28;19905;-77
2023/01/22 10:28:58;;;;;;;;;;;1.40;99.90;;;;;;5021082;28;19905;-77
2023/01/22 10:31:26;;;;;;;;;;;1.40;99.90;;;;;;5037428;28;19930;-77
2023/01/22 10:33:58;;;;;;;;;;;1.40;99.90;;;;;;5037367;28;19908;-77
2023/01/22 10:36:24;;;;;;;;;;;1.30;99.90;;;;;;5020251;28;20367;-77
2023/01/22 10:39:00;;;;;;;;;;;2.80;99.90;;;;;;5019018;28;19975;-77
2023/01/22 10:41:28;;;;;;;;;;;1.30;99.90;;;;;;5019920;28;19913;-77
2023/01/22 10:43:53;;;;;;;;;;;1.30;99.90;;;;;;5019814;28;19996;-77
2023/01/22 10:46:22;;;;;;;;;;;1.30;99.90;;;;;;5018983;28;19944;-77
2023/01/22 10:48:57;;;;;;;;;;;1.20;99.90;;;;;;5037040;28;20292;-77
2023/01/22 10:51:26;;;;;;;;;;;1.20;99.90;;;;;;5036682;28;19912;-77
2023/01/22 10:53:56;;;;;;;;;;;1.20;99.90;;;;;;5037028;28;20372;-77
2023/01/22 10:56:32;;;;;;;;;;;1.30;99.90;;;;;;5036860;28;19916;-77
2023/01/22 10:59:03;;;;;;;;;;;1.40;99.90;;;;;;5019084;28;19905;-77
2023/01/22 11:01:36;;;;;;;;;;;1.50;99.90;;;;;;5019168;28;19909;-77
2023/01/22 11:04:18;;;;;;;;;;;1.50;99.90;;;;;;5036840;28;19909;-77
2023/01/22 11:06:46;;;;;;;;;;;1.60;99.90;;;;;;5018865;28;19905;-77
2023/01/22 11:09:15;;;;;;;;;;;1.60;99.90;;;;;;5019058;28;19987;-77
2023/01/22 11:11:43;;;;;;;;;;;1.70;99.90;;;;;;5036869;28;19905;-77
2023/01/22 11:14:10;;;;;;;;;;;1.80;99.90;;;;;;5037465;28;20359;-77
2023/01/22 11:16:37;;;;;;;;;;;1.80;99.90;;;;;;5018533;28;20000;-77
2023/01/22 11:19:23;;;;;;;;;;;1.80;99.90;;;;;;5036299;28;19905;-77
2023/01/22 11:21:50;;;;;;;;;;;1.80;99.90;;;;;;5035028;28;19909;-77
2023/01/22 11:24:35;;;;;;;;;;;1.80;99.90;;;;;;5018161;28;20291;-77
2023/01/22 11:27:05;;;;;;;;;;;1.70;99.90;;;;;;5018547;28;19925;-77
2023/01/22 11:29:42;;;;;;;;;;;1.70;99.90;;;;;;5017668;28;20286;-77
2023/01/22 11:32:14;;;;;;;;;;;1.70;99.90;;;;;;5036010;28;19905;-76
2023/01/22 11:34:44;;;;;;;;;;;1.70;99.90;;;;;;5035565;28;19905;-76
2023/01/22 11:37:12;;;;;;;;;;;1.70;99.90;;;;;;5036396;28;19967;-76
2023/01/22 11:39:38;;;;;;;;;;;1.80;99.90;;;;;;5035751;28;19905;-77
2023/01/22 11:42:19;;;;;;;;;;;1.90;99.90;;;;;;5018353;28;19932;-77
2023/01/22 11:45:03;;;;;;;;;;;1.90;99.90;;;;;;5018766;28;19905;-76
2023/01/22 11:47:34;;;;;;;;;;;2.00;99.90;;;;;;5035664;28;20434;-76
2023/01/22 11:50:03;;;;;;;;;;;2.10;99.90;;;;;;5035717;28;19959;-76
2023/01/22 11:52:48;;;;;;;;;;;2.10;99.90;;;;;;5018225;28;19999;-76
2023/01/22 11:55:17;;;;;;;;;;;2.20;99.90;;;;;;5036035;28;19905;-76
2023/01/22 11:57:49;;;;;;;;;;;2.20;99.90;;;;;;5018982;28;19905;-76
2023/01/22 12:00:15;;;;;;;;;;;2.20;99.90;;;;;;5019213;28;20265;-77
2023/01/22 12:02:51;;;;;;;;;;;2.30;99.90;;;;;;5018319;28;19913;-77
2023/01/22 12:05:29;;;;;;;;;;;2.30;99.90;;;;;;5018113;28;19940;-77
2023/01/22 12:08:01;;;;;;;;;;;2.30;99.90;;;;;;5018753;28;19905;-76
2023/01/22 12:10:45;;;;;;;;;;;2.30;99.90;;;;;;5018281;28;20360;-77
2023/01/22 12:13:11;;;;;;;;;;;2.30;99.90;;;;;;5017690;28;20352;-77
2023/01/22 12:15:40;;;;;;;;;;;2.40;99.90;;;;;;5017582;28;19962;-77
2023/01/22 12:18:41;;;;;;;;;;;2.40;99.90;;;;;;5035973;28;19905;-77
2023/01/22 12:21:28;;;;;;;;;;;2.40;99.90;;;;;;4954999;28;19957;-77
2023/01/22 12:24:06;;;;;;;;;;;2.40;99.90;;;;;;5031335;28;19912;-77
2023/01/22 12:26:35;;;;;;;;;;;2.40;99.90;;;;;;5018629;28;19928;-77
2023/01/22 12:29:08;;;;;;;;;;;2.50;99.90;;;;;;5035887;28;19913;-77
2023/01/22 12:31:46;;;;;;;;;;;2.50;99.90;;;;;;5035818;28;19912;-76
2023/01/22 12:34:15;;;;;;;;;;;2.50;99.90;;;;;;5036926;28;20039;-76
2023/01/22 12:36:42;;;;;;;;;;;2.50;99.90;;;;;;5017771;28;20363;-77
2023/01/22 12:39:15;;;;;;;;;;;2.50;99.90;;;;;;5035599;28;20323;-77
2023/01/22 12:41:59;;;;;;;;;;;2.50;99.90;;;;;;5035433;28;19917;-77
2023/01/22 12:44:24;;;;;;;;;;;2.50;99.90;;;;;;5017405;28;19983;-77
2023/01/22 12:46:59;;;;;;;;;;;2.50;99.90;;;;;;5035271;28;19940;-77
2023/01/22 12:49:25;;;;;;;;;;;2.40;99.90;;;;;;5035841;28;19905;-77
2023/01/22 12:51:51;;;;;;;;;;;2.50;99.90;;;;;;5034805;28;19909;-77
2023/01/22 12:54:23;;;;;;;;;;;2.40;99.90;;;;;;5035461;28;19905;-77
2023/01/22 12:56:49;;;;;;;;;;;2.50;99.90;;;;;;5035658;28;19905;-77
2023/01/22 12:59:33;;;;;;;;;;;2.40;99.90;;;;;;5035205;28;20000;-77
2023/01/22 13:02:00;;;;;;;;;;;2.50;99.90;;;;;;5017545;28;19916;-77
2023/01/22 13:04:29;;;;;;;;;;;2.50;99.90;;;;;;5035443;28;19928;-77
2023/01/22 13:07:05;;;;;;;;;;;2.40;99.90;;;;;;5035069;28;19905;-77
2023/01/22 13:09:34;;;;;;;;;;;2.50;99.90;;;;;;5017157;28;19909;-77
2023/01/22 13:12:07;;;;;;;;;;;2.50;99.90;;;;;;5017573;28;19905;-77
2023/01/22 13:14:33;;;;;;;;;;;2.50;99.90;;;;;;5035200;28;20276;-77
2023/01/22 13:17:22;;;;;;;;;;;2.50;99.90;;;;;;5035332;28;19905;-77
2023/01/22 13:19:49;;;;;;;;;;;2.40;99.90;;;;;;5007324;28;20280;-77
2023/01/22 13:22:25;;;;;;;;;;;2.40;99.90;;;;;;5017415;28;19985;-78
2023/01/22 13:24:52;;;;;;;;;;;2.40;99.90;;;;;;5035942;28;19916;-77
2023/01/22 13:27:32;;;;;;;;;;;2.40;99.90;;;;;;5038289;28;19905;-78
2023/01/22 13:30:08;;;;;;;;;;;2.40;99.90;;;;;;5019210;28;19912;-77
2023/01/22 13:32:33;;;;;;;;;;;2.50;99.90;;;;;;5037961;28;19905;-77
2023/01/22 13:35:03;;;;;;;;;;;2.40;99.90;;;;;;5020104;28;20276;-77
2023/01/22 13:37:29;;;;;;;;;;;2.40;99.90;;;;;;5019511;28;19909;-78
2023/01/22 13:39:55;;;;;;;;;;;2.40;99.90;;;;;;5038155;28;19959;-77
2023/01/22 13:42:23;;;;;;;;;;;2.70;99.90;;;;;;5020278;28;20335;-78
2023/01/22 13:44:50;;;;;;;;;;;2.30;99.90;;;;;;5019980;28;19928;-78
2023/01/22 13:47:30;;;;;;;;;;;2.30;99.90;;;;;;5020376;28;19905;-78
2023/01/22 13:49:55;;;;;;;;;;;2.30;99.90;;;;;;5037593;28;19913;-78
2023/01/22 13:52:21;;;;;;;;;;;2.30;99.90;;;;;;5037887;28;19915;-78
2023/01/22 13:54:57;;;;;;;;;;;2.40;99.90;;;;;;5020574;28;19905;-78
2023/01/22 13:57:23;;;;;;;;;;;2.50;99.90;;;;;;5019981;28;19959;-78
2023/01/22 13:59:56;;;;;;;;;;;2.50;99.90;;;;;;5019730;28;19991;-79
2023/01/22 14:02:28;;;;;;;;;;;2.50;99.90;;;;;;5037736;28;19955;-78
2023/01/22 14:04:54;;;;;;;;;;;2.60;99.90;;;;;;5037809;28;19905;-78
2023/01/22 14:07:26;;;;;;;;;;;2.60;99.90;;;;;;5019839;28;19968;-78
2023/01/22 14:09:52;;;;;;;;;;;2.50;99.90;;;;;;5038127;28;19912;-78
2023/01/22 14:12:19;;;;;;;;;;;2.50;99.90;;;;;;5020289;28;19904;-78
2023/01/22 14:14:45;;;;;;;;;;;2.50;99.90;;;;;;5019034;28;19913;-78
2023/01/22 14:17:24;;;;;;;;;;;2.40;99.90;;;;;;5019271;28;19909;-78
2023/01/22 14:19:50;;;;;;;;;;;2.40;99.90;;;;;;5037168;28;19906;-78
2023/01/22 14:22:16;;;;;;;;;;;2.40;99.90;;;;;;5020187;28;19909;-78
2023/01/22 14:24:41;;;;;;;;;;;2.30;99.90;;;;;;5019445;28;19959;-78
2023/01/22 14:27:07;;;;;;;;;;;2.30;99.90;;;;;;5036705;28;19963;-78
2023/01/22 14:29:32;;;;;;;;;;;2.20;99.90;;;;;;5019109;28;19952;-78
2023/01/22 14:31:58;;;;;;;;;;;2.10;99.90;;;;;;5018945;28;19905;-78
2023/01/22 14:34:23;;;;;;;;;;;2.10;99.90;;;;;;5019439;28;20003;-78
2023/01/22 14:36:49;;;;;;;;;;;2.10;99.90;;;;;;5018883;28;19912;-78
2023/01/22 14:39:14;;;;;;;;;;;3.40;99.90;;;;;;5036036;28;20360;-78